createdAt,value
2023-02-01T00:00:33.967Z,3.88
2023-02-01T00:01:36.281Z,4.60
2023-02-01T00:02:41.678Z,4.20
2023-02-01T00:03:44.113Z,5.03
2023-02-01T00:04:46.430Z,3.53
2023-02-01T00:05:59.579Z,4.82
2023-02-01T00:07:02.126Z,3.42
2023-02-01T00:08:04.743Z,4.88
2023-02-01T00:09:07.207Z,4.15
2023-02-01T00:10:10.084Z,5.05
2023-02-01T00:11:12.908Z,3.28
2023-02-01T00:12:15.190Z,4.30
2023-02-01T00:13:17.483Z,4.15
2023-02-01T00:14:21.788Z,4.35
2023-02-01T00:15:24.173Z,5.53
2023-02-01T00:16:29.077Z,4.03
2023-02-01T00:17:31.391Z,3.13
2023-02-01T00:18:34.087Z,3.63
2023-02-01T00:19:36.439Z,4.53
2023-02-01T00:20:38.834Z,4.03
2023-02-01T00:21:41.665Z,3.10
2023-02-01T00:22:43.948Z,5.88
2023-02-01T00:23:46.723Z,4.38
2023-02-01T00:24:49.009Z,4.15
2023-02-01T00:25:51.388Z,4.15
2023-02-01T00:26:53.863Z,3.65
2023-02-01T00:27:58.906Z,3.55
2023-02-01T00:29:03.248Z,2.60
2023-02-01T00:30:06.270Z,3.80
2023-02-01T00:31:08.735Z,2.45
2023-02-01T00:32:11.082Z,2.10
2023-02-01T00:33:13.330Z,2.50
2023-02-01T00:34:17.595Z,3.47
2023-02-01T00:35:19.985Z,3.58
2023-02-01T00:36:22.345Z,2.85
2023-02-01T00:37:24.930Z,4.43
2023-02-01T00:38:28.627Z,2.88
2023-02-01T00:39:30.945Z,3.08
2023-02-01T00:40:33.304Z,2.22
2023-02-01T00:41:36.114Z,3.30
2023-02-01T00:42:38.528Z,5.40
2023-02-01T00:43:42.902Z,2.25
2023-02-01T00:44:45.347Z,2.72
2023-02-01T00:45:48.280Z,4.55
2023-02-01T00:46:50.654Z,3.15
2023-02-01T00:47:52.962Z,2.45
2023-02-01T00:48:55.816Z,6.85
2023-02-01T00:49:58.271Z,2.25
2023-02-01T00:51:02.153Z,2.78
2023-02-01T00:52:04.615Z,2.13
2023-02-01T00:53:06.914Z,2.22
2023-02-01T00:54:09.186Z,3.05
2023-02-01T00:55:11.428Z,2.40
2023-02-01T00:56:14.236Z,2.70
2023-02-01T00:57:16.471Z,4.20
2023-02-01T00:58:19.548Z,2.30
2023-02-01T00:59:21.835Z,14.32
2023-02-01T01:00:24.317Z,38.88
2023-02-01T01:01:28.083Z,37.42
2023-02-01T01:02:31.319Z,29.17
2023-02-01T01:03:35.332Z,12.57
2023-02-01T01:04:38.526Z,10.50
2023-02-01T01:05:40.879Z,10.82
2023-02-01T01:06:43.305Z,7.10
2023-02-01T01:07:45.707Z,8.15
2023-02-01T01:08:49.116Z,6.10
2023-02-01T01:09:51.417Z,5.40
2023-02-01T01:10:53.977Z,4.90
2023-02-01T01:11:56.556Z,5.60
2023-02-01T01:12:59.544Z,4.60
2023-02-01T01:14:02.288Z,3.95
2023-02-01T01:15:05.173Z,5.07
2023-02-01T01:16:08.687Z,4.07
2023-02-01T01:17:11.129Z,4.05
2023-02-01T01:18:14.525Z,4.70
2023-02-01T01:19:16.802Z,3.60
2023-02-01T01:20:22.609Z,3.15
2023-02-01T01:21:26.078Z,4.47
2023-02-01T01:22:28.506Z,4.20
2023-02-01T01:23:30.969Z,4.00
2023-02-01T01:24:33.506Z,4.28
2023-02-01T01:25:40.097Z,3.03
2023-02-01T01:26:42.467Z,3.30
2023-02-01T01:27:44.823Z,5.05
2023-02-01T01:28:47.534Z,3.10
2023-02-01T01:29:51.625Z,4.00
2023-02-01T01:30:54.100Z,3.30
2023-02-01T01:31:56.477Z,3.15
2023-02-01T01:32:58.771Z,2.03
2023-02-01T01:34:01.374Z,3.72
2023-02-01T01:35:07.296Z,3.33
2023-02-01T01:36:13.647Z,2.25
2023-02-01T01:37:16.007Z,2.40
2023-02-01T01:38:18.380Z,2.83
2023-02-01T01:39:20.675Z,2.28
2023-02-01T01:40:23.454Z,3.08
2023-02-01T01:41:29.637Z,3.95
2023-02-01T01:42:44.108Z,28.50
2023-02-01T01:43:54.243Z,18.25
2023-02-01T01:44:57.695Z,23.50
2023-02-01T01:46:00.409Z,14.38
2023-02-01T01:47:02.779Z,11.45
2023-02-01T01:48:30.943Z,5.30
2023-02-01T01:49:33.270Z,5.72
2023-02-01T01:50:59.992Z,5.22
2023-02-01T01:52:03.555Z,3.17
2023-02-01T01:53:08.487Z,3.85
2023-02-01T01:54:14.931Z,5.57
2023-02-01T01:55:20.896Z,2.40
2023-02-01T01:56:25.419Z,3.17
2023-02-01T01:57:45.389Z,2.70
2023-02-01T01:58:47.779Z,4.05
2023-02-01T01:59:55.902Z,3.65
2023-02-01T02:00:58.260Z,2.28
2023-02-01T02:02:00.817Z,2.95
2023-02-01T02:03:12.544Z,3.95
2023-02-01T02:04:14.973Z,2.75
2023-02-01T02:05:19.071Z,2.40
2023-02-01T02:06:58.779Z,5.07
2023-02-01T02:08:02.488Z,8.15
2023-02-01T02:09:07.061Z,5.22
2023-02-01T02:10:12.088Z,6.75
2023-02-01T02:11:17.944Z,5.32
2023-02-01T02:12:20.330Z,5.32
2023-02-01T02:13:23.058Z,4.38
2023-02-01T02:14:27.264Z,5.97
2023-02-01T02:15:31.168Z,3.03
2023-02-01T02:16:48.977Z,5.30
2023-02-01T02:18:06.024Z,4.85
2023-02-01T02:19:39.278Z,4.72
2023-02-01T02:21:03.222Z,4.55
2023-02-01T02:22:20.595Z,3.28
2023-02-01T02:23:39.354Z,2.72
2023-02-01T02:24:53.743Z,4.70
2023-02-01T02:26:13.891Z,3.00
2023-02-01T02:27:46.401Z,1.60
2023-02-01T02:29:26.186Z,3.90
2023-02-01T02:30:34.537Z,1.83
2023-02-01T02:32:13.537Z,2.08
2023-02-01T02:33:34.343Z,1.73
2023-02-01T02:35:07.345Z,2.17
2023-02-01T02:36:34.224Z,1.60
2023-02-01T02:37:47.718Z,1.25
2023-02-01T02:39:09.929Z,1.95
2023-02-01T02:40:32.152Z,1.48
2023-02-01T02:42:12.122Z,31.58
2023-02-01T02:43:48.640Z,115.07
2023-02-01T02:45:26.151Z,26.83
2023-02-01T02:47:00.673Z,15.65
2023-02-01T02:48:26.647Z,12.75
2023-02-01T02:49:37.898Z,8.07
2023-02-01T02:51:13.375Z,6.10
2023-02-01T02:52:37.637Z,5.00
2023-02-01T02:54:22.132Z,3.85
2023-02-01T02:55:30.106Z,4.55
2023-02-01T02:56:52.166Z,3.70
2023-02-01T02:58:16.042Z,3.63
2023-02-01T02:59:41.026Z,5.72
2023-02-01T03:01:03.401Z,3.92
2023-02-01T03:02:25.326Z,2.75
2023-02-01T03:03:46.302Z,2.85
2023-02-01T03:04:57.172Z,4.50
2023-02-01T03:06:00.618Z,3.95
2023-02-01T03:07:37.041Z,5.20
2023-02-01T03:08:39.399Z,2.08
2023-02-01T03:09:45.028Z,2.38
2023-02-01T03:10:58.720Z,2.78
2023-02-01T03:12:28.855Z,3.22
2023-02-01T03:13:50.826Z,2.03
2023-02-01T03:14:58.441Z,3.08
2023-02-01T03:16:29.664Z,3.22
2023-02-01T03:17:40.016Z,19.77
2023-02-01T03:19:07.415Z,25.67
2023-02-01T03:20:12.007Z,48.97
2023-02-01T03:21:20.061Z,72.78
2023-02-01T03:22:25.376Z,54.25
2023-02-01T03:23:35.043Z,39.72
2023-02-01T03:24:42.425Z,38.45
2023-02-01T03:25:45.247Z,28.20
2023-02-01T03:26:55.293Z,25.33
2023-02-01T03:28:08.153Z,26.42
2023-02-01T03:29:18.563Z,23.30
2023-02-01T03:30:24.289Z,21.13
2023-02-01T03:31:28.964Z,17.42
2023-02-01T03:32:51.828Z,13.98
2023-02-01T03:33:54.482Z,13.65
2023-02-01T03:34:56.996Z,16.42
2023-02-01T03:36:23.683Z,10.43
2023-02-01T03:37:28.627Z,10.65
2023-02-01T03:38:38.188Z,12.15
2023-02-01T03:39:55.848Z,10.55
2023-02-01T03:41:27.915Z,11.98
2023-02-01T03:42:39.831Z,10.52
2023-02-01T03:44:10.490Z,8.50
2023-02-01T03:45:23.414Z,10.80
2023-02-01T03:46:34.061Z,9.13
2023-02-01T03:47:40.655Z,9.70
2023-02-01T03:48:44.328Z,8.70
2023-02-01T03:49:51.677Z,7.78
2023-02-01T03:50:58.694Z,8.13
2023-02-01T03:52:02.257Z,13.35
2023-02-01T03:53:24.706Z,7.53
2023-02-01T03:54:29.255Z,8.98
2023-02-01T03:55:32.793Z,11.27
2023-02-01T03:56:38.953Z,8.25
2023-02-01T03:57:47.085Z,8.10
2023-02-01T03:58:59.749Z,7.07
2023-02-01T04:00:12.651Z,9.32
2023-02-01T04:01:17.751Z,7.95
2023-02-01T04:02:20.852Z,9.60
2023-02-01T04:03:23.894Z,8.35
2023-02-01T04:04:26.334Z,8.20
2023-02-01T04:05:31.292Z,8.10
2023-02-01T04:06:37.998Z,8.68
2023-02-01T04:07:41.199Z,7.10
2023-02-01T04:08:43.607Z,6.53
2023-02-01T04:09:45.925Z,11.43
2023-02-01T04:10:48.638Z,8.55
2023-02-01T04:11:50.973Z,7.78
2023-02-01T04:12:53.383Z,81.03
2023-02-01T04:13:56.162Z,170.70
2023-02-01T04:14:59.113Z,142.02
2023-02-01T04:16:01.518Z,131.52
2023-02-01T04:17:04.063Z,108.65
2023-02-01T04:18:06.654Z,77.20
2023-02-01T04:19:09.207Z,68.88
2023-02-01T04:20:11.823Z,57.60
2023-02-01T04:21:14.127Z,45.78
2023-02-01T04:22:16.975Z,43.45
2023-02-01T04:23:19.305Z,38.00
2023-02-01T04:24:21.564Z,37.00
2023-02-01T04:25:23.905Z,34.97
2023-02-01T04:26:26.409Z,34.97
2023-02-01T04:27:28.844Z,37.10
2023-02-01T04:28:31.864Z,32.15
2023-02-01T04:29:34.652Z,29.80
2023-02-01T04:30:37.066Z,33.33
2023-02-01T04:31:39.589Z,37.85
2023-02-01T04:32:42.039Z,35.25
2023-02-01T04:33:44.898Z,33.90
2023-02-01T04:34:47.266Z,29.27
2023-02-01T04:35:49.569Z,33.53
2023-02-01T04:36:52.311Z,30.23
2023-02-01T04:37:54.558Z,30.17
2023-02-01T04:38:56.913Z,29.88
2023-02-01T04:39:59.316Z,29.63
2023-02-01T04:41:01.836Z,32.88
2023-02-01T04:42:04.541Z,29.35
2023-02-01T04:43:07.026Z,30.60
2023-02-01T04:44:18.510Z,28.23
2023-02-01T04:45:20.782Z,28.67
2023-02-01T04:46:23.233Z,31.63
2023-02-01T04:47:25.750Z,27.85
2023-02-01T04:48:28.580Z,28.20
2023-02-01T04:49:30.874Z,28.45
2023-02-01T04:50:33.116Z,28.50
2023-02-01T04:51:35.407Z,28.05
2023-02-01T04:52:38.350Z,27.88
2023-02-01T04:53:40.699Z,26.10
2023-02-01T04:54:43.016Z,26.77
2023-02-01T04:55:45.936Z,31.63
2023-02-01T04:56:48.249Z,73.93
2023-02-01T04:57:50.544Z,69.53
2023-02-01T04:58:52.862Z,70.18
2023-02-01T04:59:55.454Z,48.30
2023-02-01T05:00:57.891Z,47.33
2023-02-01T05:02:00.212Z,39.95
2023-02-01T05:03:02.524Z,39.08
2023-02-01T05:04:05.144Z,36.67
2023-02-01T05:05:07.746Z,35.40
2023-02-01T05:06:10.065Z,36.33
2023-02-01T05:07:12.621Z,37.22
2023-02-01T05:08:15.071Z,36.15
2023-02-01T05:09:17.488Z,33.63
2023-02-01T05:10:20.279Z,32.53
2023-02-01T05:11:41.139Z,33.08
2023-02-01T05:13:04.192Z,34.55
2023-02-01T05:14:06.544Z,28.40
2023-02-01T05:15:09.253Z,30.88
2023-02-01T05:16:11.687Z,30.75
2023-02-01T05:17:14.229Z,29.73
2023-02-01T05:18:16.484Z,29.77
2023-02-01T05:19:18.808Z,27.55
2023-02-01T05:20:21.286Z,27.52
2023-02-01T05:21:24.069Z,26.85
2023-02-01T05:22:26.410Z,23.70
2023-02-01T05:23:28.733Z,27.33
2023-02-01T05:24:31.100Z,24.95
2023-02-01T05:25:33.495Z,23.80
2023-02-01T05:26:36.645Z,23.48
2023-02-01T05:27:38.984Z,25.05
2023-02-01T05:28:41.342Z,26.20
2023-02-01T05:29:43.707Z,27.55
2023-02-01T05:30:46.173Z,21.27
2023-02-01T05:31:49.154Z,25.63
2023-02-01T05:32:53.186Z,24.25
2023-02-01T05:33:55.562Z,20.85
2023-02-01T05:34:57.913Z,22.25
2023-02-01T05:36:00.203Z,64.15
2023-02-01T05:37:02.690Z,116.72
2023-02-01T05:38:05.015Z,104.78
2023-02-01T05:39:07.443Z,73.97
2023-02-01T05:40:10.469Z,56.08
2023-02-01T05:41:12.723Z,42.25
2023-02-01T05:42:15.120Z,37.35
2023-02-01T05:43:17.600Z,31.80
2023-02-01T05:44:19.862Z,38.55
2023-02-01T05:45:22.179Z,37.05
2023-02-01T05:46:25.032Z,41.33
2023-02-01T05:47:27.431Z,36.58
2023-02-01T05:48:29.818Z,34.63
2023-02-01T05:49:32.175Z,34.47
2023-02-01T05:50:34.654Z,34.28
2023-02-01T05:51:44.730Z,31.42
2023-02-01T05:52:47.027Z,39.38
2023-02-01T05:53:49.367Z,35.33
2023-02-01T05:54:51.886Z,39.28
2023-02-01T05:55:54.442Z,35.53
2023-02-01T05:56:56.817Z,31.88
2023-02-01T05:57:59.174Z,32.95
2023-02-01T06:00:04.507Z,32.90
2023-02-01T06:01:14.893Z,32.83
2023-02-01T06:02:17.645Z,30.20
2023-02-01T06:03:20.214Z,29.30
2023-02-01T06:04:22.797Z,26.80
2023-02-01T06:05:25.435Z,28.10
2023-02-01T06:06:28.108Z,28.85
2023-02-01T06:07:31.084Z,30.35
2023-02-01T06:08:33.851Z,30.65
2023-02-01T06:09:37.233Z,27.13
2023-02-01T06:10:39.801Z,30.00
2023-02-01T06:11:42.331Z,28.98
2023-02-01T06:12:45.776Z,27.13
2023-02-01T06:13:48.341Z,26.77
2023-02-01T06:14:50.908Z,25.73
2023-02-01T06:15:53.484Z,227.13
2023-02-01T06:16:56.503Z,98.63
2023-02-01T06:17:59.164Z,103.85
2023-02-01T06:19:01.633Z,79.43
2023-02-01T06:20:04.446Z,57.72
2023-02-01T06:21:06.879Z,47.35
2023-02-01T06:22:09.268Z,43.22
2023-02-01T06:23:11.881Z,37.13
2023-02-01T06:24:15.173Z,39.33
2023-02-01T06:25:18.111Z,40.03
2023-02-01T06:26:20.989Z,37.75
2023-02-01T06:27:24.146Z,39.17
2023-02-01T06:28:26.702Z,36.03
2023-02-01T06:29:29.004Z,36.22
2023-02-01T06:30:31.467Z,35.00
2023-02-01T06:31:34.586Z,35.90
2023-02-01T06:32:37.243Z,34.45
2023-02-01T06:33:40.656Z,32.90
2023-02-01T06:34:42.936Z,31.55
2023-02-01T06:35:45.235Z,33.08
2023-02-01T06:36:47.539Z,32.15
2023-02-01T06:37:50.127Z,31.30
2023-02-01T06:38:52.952Z,28.70
2023-02-01T06:39:55.264Z,29.95
2023-02-01T06:40:58.841Z,33.03
2023-02-01T06:42:01.189Z,30.20
2023-02-01T06:43:03.501Z,30.40
2023-02-01T06:44:05.819Z,32.42
2023-02-01T06:45:08.912Z,27.20
2023-02-01T06:46:13.971Z,32.10
2023-02-01T06:47:16.373Z,30.25
2023-02-01T06:48:19.115Z,27.33
2023-02-01T06:49:21.805Z,28.65
2023-02-01T06:50:24.471Z,28.27
2023-02-01T06:51:30.259Z,30.27
2023-02-01T06:52:32.530Z,29.30
2023-02-01T06:53:35.366Z,30.45
2023-02-01T06:54:38.412Z,31.63
2023-02-01T06:55:40.763Z,29.25
2023-02-01T06:56:43.191Z,26.75
2023-02-01T06:57:45.578Z,27.75
2023-02-01T06:58:48.273Z,30.25
2023-02-01T06:59:50.582Z,27.95
2023-02-01T07:00:54.797Z,28.40
2023-02-01T07:01:57.134Z,27.42
2023-02-01T07:03:00.821Z,30.95
2023-02-01T07:04:03.412Z,28.67
2023-02-01T07:05:06.173Z,30.20
2023-02-01T07:06:09.246Z,37.35
2023-02-01T07:07:11.873Z,34.13
2023-02-01T07:08:15.129Z,30.00
2023-02-01T07:09:17.617Z,17.58
2023-02-01T07:10:20.015Z,20.88
2023-02-01T07:11:23.206Z,22.00
2023-02-01T07:12:25.577Z,16.60
2023-02-01T07:13:27.961Z,17.83
2023-02-01T07:14:30.335Z,24.25
2023-02-01T07:15:32.788Z,25.40
2023-02-01T07:16:35.137Z,28.77
2023-02-01T07:17:37.434Z,27.27
2023-02-01T07:18:40.009Z,27.75
2023-02-01T07:19:42.307Z,26.38
2023-02-01T07:20:50.292Z,30.77
2023-02-01T07:21:52.564Z,28.50
2023-02-01T07:22:58.771Z,27.33
2023-02-01T07:24:01.230Z,27.52
2023-02-01T07:25:06.328Z,25.23
2023-02-01T07:26:13.351Z,26.30
2023-02-01T07:27:15.637Z,176.65
2023-02-01T07:28:18.357Z,85.65
2023-02-01T07:29:21.649Z,35.15
2023-02-01T07:30:24.298Z,42.35
2023-02-01T07:31:27.513Z,50.60
2023-02-01T07:32:30.677Z,40.70
2023-02-01T07:33:33.744Z,44.55
2023-02-01T07:34:36.196Z,40.50
2023-02-01T07:35:38.493Z,34.60
2023-02-01T07:36:40.839Z,31.58
2023-02-01T07:37:43.230Z,34.10
2023-02-01T07:38:48.012Z,39.60
2023-02-01T07:39:53.571Z,38.72
2023-02-01T07:41:00.618Z,35.22
2023-02-01T07:42:02.924Z,34.38
2023-02-01T07:43:07.059Z,35.55
2023-02-01T07:44:09.488Z,34.03
2023-02-01T07:45:21.399Z,34.03
2023-02-01T07:46:24.590Z,30.17
2023-02-01T07:47:27.044Z,32.63
2023-02-01T07:48:29.711Z,33.42
2023-02-01T07:49:32.140Z,36.33
2023-02-01T07:50:34.679Z,36.80
2023-02-01T07:51:37.021Z,32.00
2023-02-01T07:52:40.897Z,29.85
2023-02-01T07:53:44.803Z,35.10
2023-02-01T07:54:47.072Z,29.67
2023-02-01T07:55:49.509Z,30.67
2023-02-01T07:56:51.920Z,35.08
2023-02-01T07:57:58.408Z,28.45
2023-02-01T07:59:01.605Z,27.88
2023-02-01T08:00:24.277Z,30.65
2023-02-01T08:01:29.022Z,30.15
2023-02-01T08:02:32.482Z,29.58
2023-02-01T08:03:34.907Z,27.95
2023-02-01T08:04:37.201Z,30.27
2023-02-01T08:05:39.749Z,29.17
2023-02-01T08:06:42.244Z,30.63
2023-02-01T08:07:44.637Z,27.15
2023-02-01T08:08:48.089Z,29.83
2023-02-01T08:09:50.434Z,28.60
2023-02-01T08:10:57.456Z,31.88
2023-02-01T08:11:59.813Z,46.38
2023-02-01T08:13:03.502Z,97.15
2023-02-01T08:14:06.894Z,99.50
2023-02-01T08:15:09.525Z,89.30
2023-02-01T08:16:13.510Z,88.95
2023-02-01T08:17:15.801Z,86.60
2023-02-01T08:18:18.836Z,88.88
2023-02-01T08:19:21.111Z,79.95
2023-02-01T08:20:24.209Z,61.97
2023-02-01T08:21:37.218Z,58.20
2023-02-01T08:22:39.648Z,49.38
2023-02-01T08:23:43.802Z,47.45
2023-02-01T08:24:49.013Z,41.80
2023-02-01T08:25:51.344Z,44.08
2023-02-01T08:26:53.646Z,42.15
2023-02-01T08:27:56.165Z,42.05
2023-02-01T08:29:01.250Z,41.47
2023-02-01T08:30:05.725Z,41.75
2023-02-01T08:31:10.692Z,42.35
2023-02-01T08:32:13.029Z,48.88
2023-02-01T08:33:15.549Z,45.35
2023-02-01T08:34:17.877Z,42.50
2023-02-01T08:35:21.201Z,41.60
2023-02-01T08:36:26.244Z,42.38
2023-02-01T08:37:28.571Z,44.00
2023-02-01T08:38:31.002Z,41.03
2023-02-01T08:39:33.351Z,44.53
2023-02-01T08:40:35.728Z,47.92
2023-02-01T08:41:38.631Z,42.28
2023-02-01T08:42:52.965Z,40.22
2023-02-01T08:43:55.679Z,44.60
2023-02-01T08:44:58.309Z,36.75
2023-02-01T08:46:00.786Z,35.35
2023-02-01T08:47:04.445Z,34.75
2023-02-01T08:48:06.875Z,35.67
2023-02-01T08:49:09.151Z,34.08
2023-02-01T08:50:11.846Z,38.22
2023-02-01T08:51:17.721Z,39.30
2023-02-01T08:52:20.049Z,40.08
2023-02-01T08:53:22.644Z,36.80
2023-02-01T08:54:25.041Z,46.00
2023-02-01T08:55:27.545Z,42.80
2023-02-01T08:56:30.000Z,42.03
2023-02-01T08:57:32.933Z,40.60
2023-02-01T08:58:35.579Z,40.40
2023-02-01T08:59:37.926Z,40.25
2023-02-01T09:00:40.753Z,41.03
2023-02-01T09:01:43.250Z,39.67
2023-02-01T09:02:46.074Z,38.35
2023-02-01T09:03:48.531Z,35.97
2023-02-01T09:04:51.159Z,44.72
2023-02-01T09:05:54.404Z,41.35
2023-02-01T09:06:56.964Z,37.42
2023-02-01T09:07:59.591Z,34.50
2023-02-01T09:09:01.899Z,35.67
2023-02-01T09:10:04.937Z,34.65
2023-02-01T09:11:12.264Z,35.40
2023-02-01T09:12:15.188Z,35.40
2023-02-01T09:13:17.502Z,33.47
2023-02-01T09:14:19.936Z,34.45
2023-02-01T09:15:22.249Z,32.95
2023-02-01T09:16:24.560Z,42.17
2023-02-01T09:18:31.681Z,36.50
2023-02-01T09:19:34.084Z,35.00
2023-02-01T09:20:38.182Z,34.80
2023-02-01T09:21:40.586Z,34.92
2023-02-01T09:22:42.979Z,33.45
2023-02-01T09:23:46.132Z,34.40
2023-02-01T09:24:48.734Z,37.75
2023-02-01T09:25:52.381Z,97.38
2023-02-01T09:26:54.868Z,71.07
2023-02-01T09:27:57.189Z,47.03
2023-02-01T09:29:00.966Z,50.10
2023-02-01T09:30:05.612Z,55.38
2023-02-01T09:31:08.065Z,49.78
2023-02-01T09:32:11.061Z,51.20
2023-02-01T09:33:13.621Z,50.13
2023-02-01T09:34:16.304Z,47.47
2023-02-01T09:35:18.868Z,47.05
2023-02-01T09:36:21.171Z,45.53
2023-02-01T09:37:23.527Z,45.58
2023-02-01T09:38:27.804Z,45.50
2023-02-01T09:39:31.065Z,41.92
2023-02-01T09:40:36.558Z,45.35
2023-02-01T09:42:06.515Z,39.50
2023-02-01T09:43:26.104Z,42.28
2023-02-01T09:44:44.598Z,50.65
2023-02-01T09:46:20.031Z,156.05
2023-02-01T09:47:25.137Z,138.38
2023-02-01T09:48:34.638Z,150.27
2023-02-01T09:49:47.183Z,114.10
2023-02-01T09:50:55.353Z,89.53
2023-02-01T09:52:00.010Z,82.10
2023-02-01T09:53:32.004Z,71.28
2023-02-01T09:56:05.128Z,61.90
2023-02-01T09:57:18.575Z,59.58
2023-02-01T09:58:34.719Z,56.63
2023-02-01T09:59:59.372Z,54.83
2023-02-01T10:01:04.009Z,48.75
2023-02-01T10:02:19.705Z,53.28
2023-02-01T10:03:24.432Z,53.40
2023-02-01T10:04:27.256Z,49.70
2023-02-01T10:05:38.544Z,51.35
2023-02-01T10:07:22.318Z,48.90
2023-02-01T10:08:36.865Z,52.13
2023-02-01T10:09:56.567Z,49.65
2023-02-01T10:11:14.822Z,51.47
2023-02-01T10:12:39.196Z,49.05
2023-02-01T10:14:04.094Z,49.58
2023-02-01T10:15:31.837Z,91.35
2023-02-01T10:17:02.418Z,45.70
2023-02-01T10:18:28.399Z,47.67
2023-02-01T10:19:50.171Z,51.65
2023-02-01T10:21:28.864Z,51.90
2023-02-01T10:23:08.717Z,53.80
2023-02-01T10:24:40.291Z,49.10
2023-02-01T10:25:55.523Z,47.33
2023-02-01T10:27:22.430Z,43.28
2023-02-01T10:28:26.839Z,45.53
2023-02-01T10:29:38.429Z,41.67
2023-02-01T10:30:46.210Z,42.30
2023-02-01T10:31:48.835Z,285.25
2023-02-01T10:32:57.231Z,84.38
2023-02-01T10:34:16.804Z,71.82
2023-02-01T10:35:24.762Z,63.50
2023-02-01T10:36:41.538Z,71.35
2023-02-01T10:37:46.019Z,61.47
2023-02-01T10:38:48.669Z,57.60
2023-02-01T10:39:54.804Z,64.05
2023-02-01T10:41:09.199Z,55.42
2023-02-01T10:42:12.380Z,54.40
2023-02-01T10:43:14.929Z,55.35
2023-02-01T10:44:26.108Z,53.33
2023-02-01T10:45:31.162Z,53.95
2023-02-01T10:46:35.117Z,53.15
2023-02-01T10:47:37.374Z,48.47
2023-02-01T10:48:41.903Z,53.55
2023-02-01T10:49:52.056Z,51.42
2023-02-01T10:51:06.812Z,52.97
2023-02-01T10:52:39.434Z,54.03
2023-02-01T10:53:53.424Z,56.17
2023-02-01T10:54:55.727Z,50.53
2023-02-01T10:55:58.102Z,55.03
2023-02-01T10:57:01.579Z,50.10
2023-02-01T10:58:16.622Z,52.15
2023-02-01T10:59:24.244Z,48.20
2023-02-01T11:00:27.439Z,46.83
2023-02-01T11:01:36.012Z,45.95
2023-02-01T11:02:38.366Z,46.92
2023-02-01T11:04:02.348Z,49.80
2023-02-01T11:05:09.747Z,43.78
2023-02-01T11:06:27.508Z,48.40
2023-02-01T11:07:30.797Z,45.25
2023-02-01T11:08:33.229Z,47.90
2023-02-01T11:09:40.985Z,43.30
2023-02-01T11:10:43.900Z,53.65
2023-02-01T11:11:49.015Z,40.55
2023-02-01T11:12:54.990Z,42.40
2023-02-01T11:13:59.053Z,48.45
2023-02-01T11:15:15.153Z,43.58
2023-02-01T11:16:19.209Z,46.10
2023-02-01T11:17:37.070Z,50.03
2023-02-01T11:18:39.607Z,42.60
2023-02-01T11:19:57.173Z,45.55
2023-02-01T11:21:00.919Z,47.25
2023-02-01T11:22:05.213Z,46.15
2023-02-01T11:23:16.127Z,44.03
2023-02-01T11:24:24.494Z,44.65
2023-02-01T11:25:27.395Z,48.13
2023-02-01T11:26:30.705Z,43.05
2023-02-01T11:27:36.379Z,44.55
2023-02-01T11:28:44.933Z,40.22
2023-02-01T11:29:52.296Z,44.47
2023-02-01T11:30:57.409Z,40.15
2023-02-01T11:32:00.992Z,42.13
2023-02-01T11:33:06.836Z,41.15
2023-02-01T11:34:16.894Z,40.75
2023-02-01T11:35:22.186Z,42.50
2023-02-01T11:36:28.894Z,39.47
2023-02-01T11:37:39.739Z,43.97
2023-02-01T11:38:55.096Z,40.42
2023-02-01T11:40:02.973Z,37.75
2023-02-01T11:41:18.673Z,38.83
2023-02-01T11:42:21.812Z,43.95
2023-02-01T11:43:29.063Z,35.05
2023-02-01T11:44:40.026Z,40.92
2023-02-01T11:45:42.608Z,40.30
2023-02-01T11:46:45.284Z,38.33
2023-02-01T11:47:51.063Z,38.88
2023-02-01T11:48:55.098Z,35.53
2023-02-01T11:50:02.427Z,37.85
2023-02-01T11:51:41.382Z,37.25
2023-02-01T11:53:01.022Z,37.30
2023-02-01T11:54:21.428Z,34.75
2023-02-01T11:55:58.735Z,37.92
2023-02-01T11:57:22.203Z,38.80
2023-02-01T11:58:51.957Z,37.60
2023-02-01T12:00:31.306Z,33.65
2023-02-01T12:01:42.537Z,33.33
2023-02-01T12:04:18.052Z,32.58
2023-02-01T12:05:28.951Z,36.42
2023-02-01T12:06:43.235Z,32.40
2023-02-01T12:08:14.653Z,37.38
2023-02-01T12:09:42.594Z,34.15
2023-02-01T12:11:00.185Z,30.35
2023-02-01T12:12:21.362Z,31.88
2023-02-01T12:13:35.555Z,36.50
2023-02-01T12:14:59.315Z,31.60
2023-02-01T12:16:42.139Z,33.83
2023-02-01T12:18:09.371Z,34.08
2023-02-01T12:19:48.676Z,31.90
2023-02-01T12:21:04.514Z,30.13
2023-02-01T12:22:43.427Z,31.80
2023-02-01T12:24:19.247Z,33.45
2023-02-01T12:25:43.352Z,30.52
2023-02-01T12:27:01.658Z,28.70
2023-02-01T12:28:18.208Z,31.15
2023-02-01T12:29:36.363Z,31.15
2023-02-01T12:30:49.649Z,26.77
2023-02-01T12:32:10.765Z,28.83
2023-02-01T12:33:19.622Z,30.08
2023-02-01T12:34:58.174Z,29.65
2023-02-01T12:36:26.780Z,27.00
2023-02-01T12:37:55.467Z,28.73
2023-02-01T12:39:30.717Z,26.08
2023-02-01T12:41:05.271Z,28.83
2023-02-01T12:42:17.157Z,33.45
2023-02-01T12:43:34.031Z,30.60
2023-02-01T12:44:46.013Z,30.15
2023-02-01T12:45:56.848Z,30.58
2023-02-01T12:47:07.534Z,26.60
2023-02-01T12:48:47.394Z,61.30
2023-02-01T12:50:23.174Z,68.15
2023-02-01T12:51:37.028Z,58.30
2023-02-01T12:52:43.469Z,59.05
2023-02-01T12:53:53.545Z,49.53
2023-02-01T12:55:08.145Z,46.78
2023-02-01T12:56:15.749Z,43.63
2023-02-01T12:57:38.620Z,38.58
2023-02-01T12:58:56.724Z,36.85
2023-02-01T13:00:18.389Z,36.22
2023-02-01T13:02:43.364Z,34.30
2023-02-01T13:04:07.083Z,34.50
2023-02-01T13:05:21.643Z,32.30
2023-02-01T13:06:58.026Z,37.58
2023-02-01T13:08:19.007Z,41.53
2023-02-01T13:10:15.044Z,34.83
2023-02-01T13:11:30.158Z,33.28
2023-02-01T13:12:41.373Z,33.90
2023-02-01T13:13:47.610Z,31.15
2023-02-01T13:15:22.441Z,36.35
2023-02-01T13:16:30.135Z,31.05
2023-02-01T13:17:34.650Z,34.20
2023-02-01T13:18:40.757Z,31.05
2023-02-01T13:19:48.660Z,30.45
2023-02-01T13:20:59.466Z,33.42
2023-02-01T13:22:08.780Z,31.67
2023-02-01T13:23:22.083Z,35.38
2023-02-01T13:24:43.772Z,32.67
2023-02-01T13:25:50.718Z,29.40
2023-02-01T13:26:56.134Z,29.77
2023-02-01T13:28:11.907Z,26.55
2023-02-01T13:29:14.577Z,27.42
2023-02-01T13:30:37.215Z,33.50
2023-02-01T13:32:07.414Z,31.92
2023-02-01T13:33:52.774Z,28.48
2023-02-01T13:35:17.349Z,25.95
2023-02-01T13:36:36.744Z,29.77
2023-02-01T13:38:03.965Z,25.73
2023-02-01T13:39:15.531Z,26.60
2023-02-01T13:40:45.862Z,28.13
2023-02-01T13:42:17.103Z,28.75
2023-02-01T13:43:27.625Z,28.50
2023-02-01T13:44:33.092Z,27.63
2023-02-01T13:45:43.373Z,27.70
2023-02-01T13:46:48.172Z,25.88
2023-02-01T13:47:54.264Z,24.60
2023-02-01T13:49:01.212Z,24.52
2023-02-01T13:50:24.408Z,33.75
2023-02-01T13:51:41.841Z,24.13
2023-02-01T13:52:51.424Z,23.25
2023-02-01T13:53:53.875Z,24.85
2023-02-01T13:55:17.244Z,24.67
2023-02-01T13:56:21.395Z,21.80
2023-02-01T13:57:39.720Z,25.95
2023-02-01T13:58:44.686Z,26.02
2023-02-01T13:59:47.003Z,27.90
2023-02-01T14:00:54.274Z,28.42
2023-02-01T14:01:56.771Z,25.23
2023-02-01T14:03:01.976Z,25.85
2023-02-01T14:04:06.978Z,27.05
2023-02-01T14:05:35.384Z,25.08
2023-02-01T14:06:45.256Z,28.35
2023-02-01T14:08:15.563Z,40.67
2023-02-01T14:09:31.180Z,38.85
2023-02-01T14:10:51.595Z,40.28
2023-02-01T14:11:58.893Z,38.10
2023-02-01T14:13:23.243Z,37.88
2023-02-01T14:14:25.593Z,31.30
2023-02-01T14:15:29.074Z,31.00
2023-02-01T14:16:31.623Z,30.08
2023-02-01T14:17:35.944Z,29.30
2023-02-01T14:18:38.422Z,27.85
2023-02-01T14:19:40.839Z,29.23
2023-02-01T14:20:50.146Z,30.83
2023-02-01T14:21:57.752Z,29.38
2023-02-01T14:23:13.369Z,28.08
2023-02-01T14:24:35.337Z,25.90
2023-02-01T14:25:38.717Z,25.95
2023-02-01T14:26:46.872Z,27.02
2023-02-01T14:27:49.291Z,27.25
2023-02-01T14:29:20.072Z,28.20
2023-02-01T14:30:25.215Z,26.65
2023-02-01T14:31:33.530Z,25.52
2023-02-01T14:32:42.597Z,24.30
2023-02-01T14:33:46.412Z,34.78
2023-02-01T14:34:48.843Z,26.10
2023-02-01T14:36:12.685Z,27.50
2023-02-01T14:37:17.863Z,23.05
2023-02-01T14:38:22.488Z,24.10
2023-02-01T14:39:42.026Z,23.20
2023-02-01T14:40:44.298Z,31.48
2023-02-01T14:41:48.115Z,29.00
2023-02-01T14:42:53.449Z,23.50
2023-02-01T14:44:04.577Z,26.38
2023-02-01T14:45:21.840Z,22.65
2023-02-01T14:47:02.697Z,25.60
2023-02-01T14:48:08.051Z,27.58
2023-02-01T14:49:11.635Z,21.85
2023-02-01T14:50:29.420Z,24.05
2023-02-01T14:51:32.965Z,26.40
2023-02-01T14:52:43.149Z,22.23
2023-02-01T14:53:47.617Z,23.17